KMSY/MSY METAR and TAF weather

Enter ICAO airport designator
Station Type Date Time Source
KMSY METAR 2019/10/23 02:53 UTC NOAA

KMSY 230253Z 36004KT 10SM FEW250 20/06 A3016 RMK AO2 SLP217 T02000056 51015


Station Type Date Time Source
KMSY Decoded METAR 2019/10/23 02:53 UTC NOAA

NEW ORLEANS INTERNATIONAL AIRPORT, LA, United States (KMSY) 30-00N 90-15W 5M
Oct 22, 2019 - 10:53 PM EDT / 2019.10.23 0253 UTC
Wind: from the N (360 degrees) at 5 MPH (4 KT):0
Visibility: 10 mile(s):0
Sky conditions: mostly clear
Temperature: 68.0 F (20.0 C)
Dew Point: 42.1 F (5.6 C)
Relative Humidity: 38%
Pressure (altimeter): 30.16 in. Hg (1021 hPa)
Pressure tendency: 0.04 inches (1.5 hPa) higher than three hours ago
ob: KMSY 230253Z 36004KT 10SM FEW250 20/06 A3016 RMK AO2 SLP217 T02000056 51015
cycle: 3

Station Type Date Time Source
KMSY TAF 2019/10/22 18:22 UTC NOAA

TAF KMSY 221720Z 2218/2324 02008KT P6SM SCT250
FM230600 VRB04KT P6SM FEW200 FEW250
FM231400 05007KT P6SM FEW250

Example: see airport list